Time;durP1;ratioP1;P1;durP2;ratioP2;P2;SDS_P1;SDS_P2;PMS_P1;PMS_P2;Temp;Humidity;BMP_temperature;BMP_pressure;BME280_temperature;BME280_humidity;BME280_pressure;Samples;Min_cycle;Max_cycle;Signal;HPM_P1;HPM_P2
2024/02/07 00:00:03;;;;;;;;;;;;;;;11.66;37.33;99415.78;4957211;28;19921;-85
2024/02/07 00:02:28;;;;;;;;;;;;;;;11.64;38.04;99417.78;4974309;28;20375;-85
2024/02/07 00:04:54;;;;;;;;;;;;;;;11.57;37.90;99419.53;4974468;28;19953;-85
2024/02/07 00:07:19;;;;;;;;;;;;;;;11.54;37.72;99419.09;4974014;28;20008;-84
2024/02/07 00:09:44;;;;;;;;;;;;;;;11.54;37.52;99417.28;4956730;28;19922;-85
2024/02/07 00:12:10;;;;;;;;;;;;;;;11.52;37.73;99426.41;4973998;28;19914;-85
2024/02/07 00:14:35;;;;;;;;;;;;;;;11.49;37.74;99419.66;4973865;28;19921;-85
2024/02/07 00:17:00;;;;;;;;;;;;;;;11.52;37.38;99418.47;4956630;28;19921;-85
2024/02/07 00:19:26;;;;;;;;;;;;;;;11.53;37.13;99418.28;4974076;28;19917;-85
2024/02/07 00:21:51;;;;;;;;;;;;;;;11.54;37.05;99421.75;4956376;28;20406;-85
2024/02/07 00:24:16;;;;;;;;;;;;;;;11.55;36.96;99412.81;4956411;28;19914;-85
2024/02/07 00:26:41;;;;;;;;;;;;;;;11.51;36.71;99416.81;4973861;28;19953;-85
2024/02/07 00:29:07;;;;;;;;;;;;;;;11.49;37.91;99421.50;4956889;28;19919;-85
2024/02/07 00:31:33;;;;;;;;;;;;;;;11.46;37.23;99426.13;4974539;28;20004;-85
2024/02/07 00:33:58;;;;;;;;;;;;;;;11.47;37.08;99424.31;4956923;28;19914;-85
2024/02/07 00:36:23;;;;;;;;;;;;;;;11.43;37.37;99409.84;4974156;28;19914;-85
2024/02/07 00:38:49;;;;;;;;;;;;;;;11.39;37.81;99413.84;4956529;28;20363;-85
2024/02/07 00:41:20;;;;;;;;;;;;;;;11.38;37.85;99412.22;4973934;28;19914;-85
2024/02/07 00:43:46;;;;;;;;;;;;;;;11.34;37.73;99417.06;4974169;28;20005;-85
2024/02/07 00:46:11;;;;;;;;;;;;;;;11.35;37.40;99416.06;4973787;28;19945;-85
2024/02/07 00:48:38;;;;;;;;;;;;;;;11.27;37.30;99418.81;4973601;28;20311;-85
2024/02/07 00:51:04;;;;;;;;;;;;;;;11.26;37.15;99417.16;4973787;28;20307;-85
2024/02/07 00:53:29;;;;;;;;;;;;;;;11.23;37.51;99420.19;4956659;28;19914;-86
2024/02/07 00:55:54;;;;;;;;;;;;;;;11.22;37.77;99413.25;4956269;28;19921;-85
2024/02/07 00:58:19;;;;;;;;;;;;;;;11.20;37.93;99412.63;4973167;28;20371;-85
2024/02/07 01:00:45;;;;;;;;;;;;;;;11.18;37.26;99414.63;4955771;28;19914;-85
2024/02/07 01:03:10;;;;;;;;;;;;;;;11.14;37.77;99410.69;4973009;28;19921;-85
2024/02/07 01:05:35;;;;;;;;;;;;;;;11.14;37.29;99415.97;4955739;28;19914;-85
2024/02/07 01:08:01;;;;;;;;;;;;;;;11.09;37.62;99413.06;4972962;28;20024;-85
2024/02/07 01:10:26;;;;;;;;;;;;;;;11.06;37.65;99411.59;4955534;28;19933;-86
2024/02/07 01:12:52;;;;;;;;;;;;;;;11.00;37.30;99412.34;4972873;28;19918;-85
2024/02/07 01:15:17;;;;;;;;;;;;;;;10.98;38.21;99413.53;4955494;28;19921;-85
2024/02/07 01:17:42;;;;;;;;;;;;;;;10.98;37.98;99418.81;4955523;28;19961;-85
2024/02/07 01:20:10;;;;;;;;;;;;;;;10.93;38.11;99408.81;4972774;28;19965;-85
2024/02/07 01:22:35;;;;;;;;;;;;;;;10.84;37.67;99409.91;4955615;28;19920;-85
2024/02/07 01:25:01;;;;;;;;;;;;;;;10.81;37.71;99416.38;4955682;28;20008;-85
2024/02/07 01:27:26;;;;;;;;;;;;;;;10.82;38.14;99412.72;4955905;28;20009;-86
2024/02/07 01:29:51;;;;;;;;;;;;;;;10.82;37.95;99412.72;4973201;28;19977;-86
2024/02/07 01:32:17;;;;;;;;;;;;;;;10.82;38.52;99411.91;4973069;28;19922;-86
2024/02/07 01:34:42;;;;;;;;;;;;;;;10.79;38.42;99415.72;4973188;28;19914;-85
2024/02/07 01:37:07;;;;;;;;;;;;;;;10.81;38.07;99424.28;4955867;28;20424;-85
2024/02/07 01:39:35;;;;;;;;;;;;;;;10.76;38.13;99424.03;4955494;28;19941;-85
2024/02/07 01:42:01;;;;;;;;;;;;;;;10.72;38.33;99416.63;4955726;28;20322;-86
2024/02/07 01:44:29;;;;;;;;;;;;;;;10.67;38.37;99419.81;4955587;28;20391;-85
2024/02/07 01:47:13;;;;;;;;;;;;;;;10.63;38.38;99423.00;4955325;28;19987;-86
2024/02/07 01:49:43;;;;;;;;;;;;;;;10.63;38.82;99412.44;4972646;28;19918;-86
2024/02/07 01:52:10;;;;;;;;;;;;;;;10.60;38.65;99418.91;4955397;28;19973;-86
2024/02/07 01:54:36;;;;;;;;;;;;;;;10.54;38.89;99410.91;4955276;28;19915;-86
2024/02/07 01:57:02;;;;;;;;;;;;;;;10.49;38.51;99411.44;4955298;28;20005;-86
2024/02/07 01:59:28;;;;;;;;;;;;;;;10.48;38.13;99409.81;4972768;28;20319;-86
2024/02/07 02:01:53;;;;;;;;;;;;;;;10.47;38.34;99410.81;4974657;28;19914;-86
2024/02/07 02:04:19;;;;;;;;;;;;;;;10.43;38.13;99405.06;4976453;28;19921;-86
2024/02/07 02:06:44;;;;;;;;;;;;;;;10.42;38.49;99410.53;4959101;28;19914;-86
2024/02/07 02:09:09;;;;;;;;;;;;;;;10.38;38.25;99403.94;4958723;28;20009;-85
2024/02/07 02:11:37;;;;;;;;;;;;;;;10.35;38.44;99413.03;4959197;28;19921;-86
2024/02/07 02:14:03;;;;;;;;;;;;;;;10.31;38.13;99413.56;4976188;28;20355;-86
2024/02/07 02:16:28;;;;;;;;;;;;;;;10.24;37.94;99410.00;4976094;28;20005;-86
2024/02/07 02:18:54;;;;;;;;;;;;;;;10.19;38.83;99410.50;4958719;28;20014;-85
2024/02/07 02:21:26;;;;;;;;;;;;;;;10.13;38.57;99406.78;4958467;28;20375;-86
2024/02/07 02:24:02;;;;;;;;;;;;;;;10.10;38.25;99396.56;4975844;28;19917;-86
2024/02/07 02:26:35;;;;;;;;;;;;;;;10.09;38.66;99407.31;4976080;28;20288;-86
2024/02/07 02:29:21;;;;;;;;;;;;;;;10.04;39.02;99404.38;4976492;28;20021;-86
2024/02/07 02:31:50;;;;;;;;;;;;;;;10.06;38.66;99405.03;4958923;28;20432;-86
2024/02/07 02:34:16;;;;;;;;;;;;;;;10.09;38.44;99409.94;4976503;28;19918;-86
2024/02/07 02:36:41;;;;;;;;;;;;;;;10.08;38.86;99408.31;4961841;28;20391;-86
2024/02/07 02:39:07;;;;;;;;;;;;;;;10.08;38.42;99397.75;4981129;28;19914;-85
2024/02/07 02:41:32;;;;;;;;;;;;;;;10.06;38.46;99400.56;4964432;28;19922;-85
2024/02/07 02:43:57;;;;;;;;;;;;;;;10.06;38.75;99405.03;4975863;28;19953;-86
2024/02/07 02:46:23;;;;;;;;;;;;;;;10.06;38.54;99405.03;4975984;28;19972;-86
2024/02/07 02:48:48;;;;;;;;;;;;;;;10.02;38.61;99404.56;4975966;28;19941;-86
2024/02/07 02:51:13;;;;;;;;;;;;;;;9.97;39.09;99400.81;4975980;28;19914;-86
2024/02/07 02:53:39;;;;;;;;;;;;;;;9.87;38.89;99406.34;4975967;28;19973;-86
2024/02/07 02:56:05;;;;;;;;;;;;;;;9.80;39.08;99405.41;4958252;28;20302;-86
2024/02/07 02:58:32;;;;;;;;;;;;;;;9.74;38.96;99406.09;4958460;28;20484;-86
2024/02/07 03:00:58;;;;;;;;;;;;;;;9.70;38.90;99396.91;4958440;28;19921;-86
2024/02/07 03:03:23;;;;;;;;;;;;;;;9.65;39.30;99396.59;4958398;28;20319;-86
2024/02/07 03:05:58;;;;;;;;;;;;;;;9.65;39.34;99401.84;4975613;28;20323;-86
2024/02/07 03:08:29;;;;;;;;;;;;;;;9.61;39.08;99398.75;4957745;28;20499;-86
2024/02/07 03:10:58;;;;;;;;;;;;;;;9.55;39.35;99413.44;4975454;28;19918;-86
2024/02/07 03:13:25;;;;;;;;;;;;;;;9.53;39.17;99406.72;4974981;28;20005;-86
2024/02/07 03:15:52;;;;;;;;;;;;;;;9.49;39.26;99408.88;4975147;28;19914;-86
2024/02/07 03:18:17;;;;;;;;;;;;;;;9.40;39.68;99409.09;4957752;28;19918;-86
2024/02/07 03:20:42;;;;;;;;;;;;;;;9.31;39.89;99408.31;4974950;28;20364;-86
2024/02/07 03:23:08;;;;;;;;;;;;;;;9.32;40.03;99420.50;4957610;28;19921;-86
2024/02/07 03:25:36;;;;;;;;;;;;;;;9.29;39.24;99418.22;4974888;28;19914;-86
2024/02/07 03:28:02;;;;;;;;;;;;;;;9.17;39.65;99414.31;4957870;28;20008;-86
2024/02/07 03:30:27;;;;;;;;;;;;;;;9.18;39.48;99413.34;4975125;28;20495;-86
2024/02/07 03:32:52;;;;;;;;;;;;;;;9.16;39.42;99402.16;4975188;28;20033;-86
2024/02/07 03:35:18;;;;;;;;;;;;;;;9.12;39.59;99417.47;4957736;28;19996;-86
2024/02/07 03:37:44;;;;;;;;;;;;;;;9.05;40.07;99413.06;4957598;28;19954;-86
2024/02/07 03:40:13;;;;;;;;;;;;;;;9.02;39.66;99413.41;4975023;28;19936;-86
2024/02/07 03:42:42;;;;;;;;;;;;;;;8.98;39.70;99410.28;4974706;28;20045;-86
2024/02/07 03:45:11;;;;;;;;;;;;;;;8.95;40.08;99412.44;4957148;28;19914;-86
2024/02/07 03:47:39;;;;;;;;;;;;;;;8.91;39.74;99399.59;4957197;28;19954;-86
2024/02/07 03:50:10;;;;;;;;;;;;;;;8.79;40.58;99393.06;4974339;28;19918;-86
2024/02/07 03:52:36;;;;;;;;;;;;;;;8.74;39.93;99391.94;4957157;28;19922;-86
2024/02/07 03:55:01;;;;;;;;;;;;;;;8.68;40.18;99388.16;4956831;28;19914;-86
2024/02/07 03:57:26;;;;;;;;;;;;;;;8.64;39.96;99383.41;4956956;28;19914;-87
2024/02/07 03:59:51;;;;;;;;;;;;;;;8.62;39.92;99388.84;4956840;28;20423;-87
2024/02/07 04:02:23;;;;;;;;;;;;;;;8.59;40.48;99378.66;4956537;28;19921;-87
2024/02/07 04:04:51;;;;;;;;;;;;;;;8.56;40.25;99386.88;4973913;28;20358;-87
2024/02/07 04:07:20;;;;;;;;;;;;;;;8.54;40.42;99380.97;4974053;28;20010;-87
2024/02/07 04:09:46;;;;;;;;;;;;;;;8.56;40.29;99379.81;4973715;28;19977;-87
2024/02/07 05:17:09;;;;;;;;;;;;;;;8.49;40.63;99389.38;4973707;28;19921;-87
2024/02/07 05:19:35;;;;;;;;;;;;;;;8.53;40.33;99395.13;4956132;28;19906;-87
2024/02/07 05:22:00;;;;;;;;;;;;;;;8.56;40.65;99379.81;4956269;28;19918;-87
2024/02/07 05:24:26;;;;;;;;;;;;;;;8.55;40.10;99396.59;4973499;28;20292;-87
2024/02/07 05:26:52;;;;;;;;;;;;;;;8.57;40.05;99402.50;4973251;28;20383;-87
2024/02/07 05:29:17;;;;;;;;;;;;;;;8.56;40.94;99398.25;4955922;28;20312;-87
2024/02/07 05:31:42;;;;;;;;;;;;;;;8.58;39.86;99390.16;4973593;28;19989;-87
2024/02/07 05:34:08;;;;;;;;;;;;;;;8.58;40.05;99390.16;4956161;28;19915;-87
2024/02/07 05:36:33;;;;;;;;;;;;;;;8.63;40.38;99410.72;4975089;28;19915;-87
2024/02/07 05:38:59;;;;;;;;;;;;;;;8.67;40.53;99415.47;4976980;28;20304;-88
2024/02/07 05:41:24;;;;;;;;;;;;;;;8.66;41.01;99418.28;4977524;28;19914;-87
2024/02/07 05:43:51;;;;;;;;;;;;;;;8.63;41.67;99408.09;4959358;28;19968;-87
2024/02/07 05:46:17;;;;;;;;;;;;;;;8.58;41.07;99414.69;4976492;28;19921;-87
2024/02/07 05:48:42;;;;;;;;;;;;;;;8.56;41.69;99421.09;4959123;28;19918;-87
2024/02/07 05:51:17;;;;;;;;;;;;;;;8.54;41.13;99420.44;4959206;28;19914;-87
2024/02/07 05:53:42;;;;;;;;;;;;;;;8.57;41.41;99415.66;4976619;28;19918;-87
2024/02/07 05:56:07;;;;;;;;;;;;;;;8.64;40.55;99418.44;4976490;28;19914;-87
2024/02/07 05:58:33;;;;;;;;;;;;;;;8.71;40.57;99419.41;4959078;28;19921;-87
2024/02/07 06:00:59;;;;;;;;;;;;;;;8.80;40.32;99425.47;4959079;28;20422;-87
2024/02/07 06:03:24;;;;;;;;;;;;;;;8.80;40.36;99431.56;4958214;28;19915;-87
2024/02/07 06:05:50;;;;;;;;;;;;;;;8.78;40.86;99432.72;4976353;28;19918;-87
2024/02/07 06:08:15;;;;;;;;;;;;;;;8.78;40.54;99433.53;4977301;28;20013;-88
2024/02/07 06:10:42;;;;;;;;;;;;;;;8.82;40.73;99424.31;4974607;28;19922;-87
2024/02/07 06:13:07;;;;;;;;;;;;;;;8.84;40.49;99438.13;4959355;28;19930;-88
2024/02/07 06:15:33;;;;;;;;;;;;;;;8.87;40.83;99436.97;4976676;28;20371;-87
2024/02/07 06:17:59;;;;;;;;;;;;;;;8.83;41.02;99433.84;4960148;28;19949;-87
2024/02/07 06:20:24;;;;;;;;;;;;;;;8.88;41.05;99425.44;4987128;28;19968;-87
2024/02/07 06:22:49;;;;;;;;;;;;;;;8.95;40.46;99430.88;4976520;28;19914;-87
2024/02/07 06:25:15;;;;;;;;;;;;;;;8.98;41.07;99435.81;4967159;28;19977;-87
2024/02/07 06:27:40;;;;;;;;;;;;;;;9.02;40.33;99437.13;4983598;28;19918;-87
2024/02/07 06:30:06;;;;;;;;;;;;;;;9.03;40.67;99441.38;4975771;28;19918;-87
2024/02/07 06:32:31;;;;;;;;;;;;;;;9.04;40.82;99437.75;4961972;28;19922;-87
2024/02/07 06:34:56;;;;;;;;;;;;;;;9.03;40.96;99439.56;4975804;28;20402;-86
2024/02/07 06:37:21;;;;;;;;;;;;;;;9.09;40.75;99445.97;4979212;28;19918;-87
2024/02/07 06:39:47;;;;;;;;;;;;;;;9.13;40.81;99434.09;4984750;28;19953;-87
2024/02/07 06:42:12;;;;;;;;;;;;;;;9.16;40.24;99446.94;4958335;28;19921;-87
2024/02/07 06:44:37;;;;;;;;;;;;;;;9.22;39.95;99440.97;4963013;28;19925;-87
2024/02/07 06:47:03;;;;;;;;;;;;;;;9.18;40.41;99431.78;4968084;28;20415;-87
2024/02/07 06:49:28;;;;;;;;;;;;;;;9.22;40.48;99427.81;4975416;28;19914;-86
2024/02/07 06:51:53;;;;;;;;;;;;;;;9.26;40.21;99420.38;4980277;28;19961;-87
2024/02/07 06:54:18;;;;;;;;;;;;;;;9.30;40.43;99425.13;4964331;28;19922;-87
2024/02/07 06:56:44;;;;;;;;;;;;;;;9.37;40.18;99417.34;4977228;28;20433;-87
2024/02/07 06:59:11;;;;;;;;;;;;;;;9.44;40.20;99419.13;4977210;28;19914;-87
2024/02/07 07:01:37;;;;;;;;;;;;;;;9.51;40.21;99424.50;4982352;28;19969;-87
2024/02/07 07:04:03;;;;;;;;;;;;;;;9.60;40.00;99425.28;4975469;28;19969;-86
2024/02/07 07:06:28;;;;;;;;;;;;;;;9.67;40.43;99418.34;4967349;28;20354;-86
2024/02/07 07:08:53;;;;;;;;;;;;;;;9.77;40.09;99421.56;4976869;28;20419;-87
2024/02/07 07:11:19;;;;;;;;;;;;;;;9.88;39.61;99429.06;4994587;28;19914;-87
2024/02/07 07:13:44;;;;;;;;;;;;;;;9.94;39.93;99424.91;4994347;28;19917;-87
2024/02/07 07:16:10;;;;;;;;;;;;;;;10.01;39.29;99426.66;4994458;28;19913;-86
2024/02/07 07:18:35;;;;;;;;;;;;;;;10.05;39.87;99422.66;4976878;28;19917;-87
2024/02/07 07:21:00;;;;;;;;;;;;;;;10.16;39.41;99424.88;4975168;28;19918;-86
2024/02/07 07:23:25;;;;;;;;;;;;;;;10.29;39.42;99428.75;4993722;28;20422;-86
2024/02/07 07:25:51;;;;;;;;;;;;;;;10.40;39.68;99423.06;4993483;28;19922;-85
2024/02/07 07:28:16;;;;;;;;;;;;;;;10.51;39.27;99420.00;4977480;28;19917;-86
2024/02/07 07:30:41;;;;;;;;;;;;;;;10.65;38.89;99418.38;4977111;28;20359;-85
2024/02/07 07:33:07;;;;;;;;;;;;;;;10.74;38.75;99415.47;4978428;28;20005;-86
2024/02/07 07:35:32;;;;;;;;;;;;;;;10.87;38.52;99408.72;4971810;28;19977;-86
2024/02/07 07:37:57;;;;;;;;;;;;;;;10.99;38.69;99410.72;4990859;28;20402;-86
2024/02/07 07:40:23;;;;;;;;;;;;;;;11.12;39.01;99412.69;4967665;28;19932;-85
2024/02/07 07:42:48;;;;;;;;;;;;;;;11.18;38.79;99414.63;4957950;28;19914;-86
2024/02/07 07:45:14;;;;;;;;;;;;;;;11.25;38.76;99420.81;4980903;28;19913;-85
2024/02/07 07:47:39;;;;;;;;;;;;;;;11.34;38.48;99411.78;4958457;28;19918;-85
2024/02/07 07:50:07;;;;;;;;;;;;;;;11.40;38.45;99413.66;4966182;28;19988;-85
2024/02/07 07:52:32;;;;;;;;;;;;;;;11.50;38.92;99415.19;4969067;28;20431;-85
2024/02/07 07:54:58;;;;;;;;;;;;;;;11.54;38.52;99419.09;4982853;28;20086;-85
2024/02/07 07:57:23;;;;;;;;;;;;;;;11.57;38.58;99410.78;4993557;28;19920;-85
2024/02/07 07:59:48;;;;;;;;;;;;;;;11.61;38.26;99420.00;4992742;28;19929;-85
2024/02/07 08:02:13;;;;;;;;;;;;;;;11.65;39.08;99414.13;4992783;28;19914;-85
2024/02/07 08:04:39;;;;;;;;;;;;;;;11.72;38.59;99411.56;4957697;28;19918;-85
2024/02/07 08:07:08;;;;;;;;;;;;;;;11.76;38.37;99413.63;4956443;28;20004;-85
2024/02/07 08:09:34;;;;;;;;;;;;;;;11.83;38.66;99405.78;4973350;28;20468;-85
2024/02/07 08:11:59;;;;;;;;;;;;;;;11.91;38.74;99404.88;4973379;28;20029;-85
2024/02/07 08:14:25;;;;;;;;;;;;;;;11.97;38.95;99396.19;4974253;28;20458;-85
2024/02/07 08:16:50;;;;;;;;;;;;;;;12.03;38.59;99393.59;4973316;28;20008;-85
2024/02/07 08:19:15;;;;;;;;;;;;;;;12.09;38.70;99387.53;4973653;28;19976;-85
2024/02/07 08:21:41;;;;;;;;;;;;;;;12.16;39.28;99387.59;4973849;28;19918;-85
2024/02/07 08:24:06;;;;;;;;;;;;;;;12.24;38.70;99379.50;4973561;28;19922;-85
2024/02/07 08:26:31;;;;;;;;;;;;;;;12.34;38.86;99392.41;4956219;28;19968;-85
2024/02/07 08:28:56;;;;;;;;;;;;;;;12.45;39.34;99386.56;4973623;28;19918;-84
2024/02/07 08:31:22;;;;;;;;;;;;;;;12.57;39.13;99384.19;4952562;28;20001;-85
2024/02/07 08:33:47;;;;;;;;;;;;;;;12.68;40.44;99378.38;4964878;28;19914;-84
2024/02/07 08:36:12;;;;;;;;;;;;;;;12.79;40.20;99371.72;4973474;28;20358;-84
2024/02/07 08:38:38;;;;;;;;;;;;;;;12.90;40.70;99377.25;4955101;28;19918;-84
2024/02/07 08:41:04;;;;;;;;;;;;;;;13.02;39.89;99380.16;4956141;28;19997;-84
2024/02/07 08:43:29;;;;;;;;;;;;;;;13.14;40.49;99372.47;4954743;29;19911;-86
2024/02/07 08:45:54;;;;;;;;;;;;;;;13.27;40.15;99375.19;4972527;28;19973;-84
2024/02/07 08:48:20;;;;;;;;;;;;;;;13.42;41.61;99375.06;4973759;28;19918;-84
2024/02/07 08:50:45;;;;;;;;;;;;;;;13.58;41.35;99364.88;4956095;28;19918;-84
2024/02/07 08:53:11;;;;;;;;;;;;;;;13.75;42.38;99367.97;4955999;28;19915;-83
2024/02/07 08:55:36;;;;;;;;;;;;;;;13.95;40.76;99365.31;4955847;28;20384;-84
2024/02/07 08:58:01;;;;;;;;;;;;;;;14.10;45.33;99368.59;4972760;28;19925;-84
2024/02/07 09:00:27;;;;;;;;;;;;;;;14.25;46.41;99365.75;4972563;28;20399;-85
2024/02/07 09:02:52;;;;;;;;;;;;;;;14.38;43.45;99356.94;4969311;28;20383;-84
2024/02/07 09:05:18;;;;;;;;;;;;;;;14.50;40.32;99357.97;4972777;28;19957;-84
2024/02/07 09:07:44;;;;;;;;;;;;;;;14.63;41.39;99358.75;4972638;28;19933;-85
2024/02/07 09:10:10;;;;;;;;;;;;;;;14.79;41.68;99348.69;4954902;28;19922;-85
2024/02/07 09:12:36;;;;;;;;;;;;;;;14.87;44.10;99357.28;4972359;28;19925;-84
2024/02/07 09:15:01;;;;;;;;;;;;;;;14.97;45.27;99345.38;4972795;28;19914;-84
2024/02/07 09:17:26;;;;;;;;;;;;;;;15.12;42.63;99341.41;4972604;28;20383;-85
2024/02/07 09:19:52;;;;;;;;;;;;;;;15.17;43.35;99332.81;4955330;28;19922;-84
2024/02/07 09:22:17;;;;;;;;;;;;;;;15.27;44.07;99323.34;4955489;28;19968;-84
2024/02/07 09:24:43;;;;;;;;;;;;;;;15.39;43.79;99327.97;4972929;28;19914;-84
2024/02/07 09:27:08;;;;;;;;;;;;;;;15.46;44.38;99321.56;4955362;28;19914;-84
2024/02/07 09:29:33;;;;;;;;;;;;;;;15.51;45.14;99321.75;4972635;28;19918;-85
2024/02/07 09:31:59;;;;;;;;;;;;;;;15.58;45.96;99319.06;4955113;28;19918;-84
2024/02/07 09:34:24;;;;;;;;;;;;;;;15.67;45.15;99324.97;4955367;28;19922;-85
2024/02/07 09:36:49;;;;;;;;;;;;;;;15.74;45.50;99317.75;4972603;28;19922;-84
2024/02/07 09:39:15;;;;;;;;;;;;;;;15.79;45.64;99328.56;4954933;28;19965;-84
2024/02/07 09:41:40;;;;;;;;;;;;;;;15.83;46.68;99322.59;4972288;28;19918;-84
2024/02/07 09:44:09;;;;;;;;;;;;;;;15.94;45.23;99309.59;4972017;28;19961;-83
2024/02/07 09:46:41;;;;;;;;;;;;;;;15.96;45.69;99308.34;4954984;28;19957;-84
2024/02/07 09:49:09;;;;;;;;;;;;;;;15.97;45.90;99299.31;4972126;28;19926;-84
2024/02/07 09:51:34;;;;;;;;;;;;;;;16.02;46.02;99296.00;4955027;28;19914;-84
2024/02/07 09:54:01;;;;;;;;;;;;;;;16.06;45.72;99290.03;4974563;28;19918;-83
2024/02/07 09:56:27;;;;;;;;;;;;;;;16.09;46.80;99286.09;4974195;28;19913;-83
2024/02/07 09:58:52;;;;;;;;;;;;;;;16.17;45.55;99280.50;4973799;28;19914;-83
2024/02/07 10:01:18;;;;;;;;;;;;;;;16.15;47.81;99277.25;4974324;28;20307;-83
2024/02/07 10:03:46;;;;;;;;;;;;;;;16.17;46.93;99267.19;4991529;28;19929;-82
2024/02/07 10:06:12;;;;;;;;;;;;;;;16.23;46.23;99260.97;4991143;28;19918;-82
2024/02/07 10:08:38;;;;;;;;;;;;;;;16.32;46.79;99267.63;4990653;28;20012;-83
2024/02/07 10:11:04;;;;;;;;;;;;;;;16.44;46.04;99257.88;4991663;28;19972;-83
2024/02/07 10:13:29;;;;;;;;;;;;;;;16.50;45.28;99253.50;4991429;28;20303;-83
2024/02/07 10:15:58;;;;;;;;;;;;;;;16.60;45.77;99256.47;4973753;28;20299;-84
2024/02/07 10:18:23;;;;;;;;;;;;;;;16.63;45.49;99250.69;4974460;28;19926;-84
2024/02/07 10:20:55;;;;;;;;;;;;;;;16.67;45.09;99241.22;4973941;28;20383;-83
2024/02/07 10:23:20;;;;;;;;;;;;;;;16.70;46.39;99248.78;4994001;28;19921;-83
2024/02/07 10:25:49;;;;;;;;;;;;;;;16.71;46.97;99237.06;4991699;28;19918;-83
2024/02/07 10:28:15;;;;;;;;;;;;;;;16.77;45.35;99235.34;4994409;28;19910;-84
2024/02/07 10:30:40;;;;;;;;;;;;;;;16.84;44.99;99225.41;4994939;28;19924;-84
2024/02/07 10:33:06;;;;;;;;;;;;;;;16.94;44.42;99222.22;4977377;28;19914;-83
2024/02/07 10:35:31;;;;;;;;;;;;;;;16.98;44.59;99213.53;4976367;28;20264;-84
2024/02/07 10:37:57;;;;;;;;;;;;;;;17.07;44.40;99212.16;4994050;28;19985;-84
2024/02/07 10:40:23;;;;;;;;;;;;;;;17.17;44.29;99208.16;4995118;28;19972;-84
2024/02/07 10:42:52;;;;;;;;;;;;;;;17.21;44.02;99202.13;4994627;28;19918;-84
2024/02/07 10:45:17;;;;;;;;;;;;;;;17.21;44.32;99202.13;4977808;28;19917;-84
2024/02/07 10:47:43;;;;;;;;;;;;;;;17.27;44.29;99195.06;4995273;28;20312;-85
2024/02/07 10:50:09;;;;;;;;;;;;;;;17.30;44.37;99191.94;4977095;28;20417;-84
2024/02/07 10:52:34;;;;;;;;;;;;;;;17.30;44.00;99189.25;4977704;28;19920;-83
2024/02/07 10:55:00;;;;;;;;;;;;;;;17.32;44.52;99174.66;4995310;28;20388;-84
2024/02/07 10:57:32;;;;;;;;;;;;;;;17.37;43.79;99173.97;4977251;28;19978;-84
2024/02/07 10:59:58;;;;;;;;;;;;;;;17.40;43.66;99170.81;4993589;28;19929;-83
2024/02/07 11:02:24;;;;;;;;;;;;;;;17.38;43.68;99160.38;4994411;28;20398;-84
2024/02/07 11:04:50;;;;;;;;;;;;;;;17.41;43.37;99157.25;4993270;28;19921;-84
2024/02/07 11:07:16;;;;;;;;;;;;;;;17.45;43.89;99155.75;4994285;28;20000;-84
2024/02/07 11:09:45;;;;;;;;;;;;;;;17.52;44.43;99158.28;4993612;28;19922;-84
2024/02/07 11:12:12;;;;;;;;;;;;;;;17.55;43.78;99151.69;4992496;28;19925;-85
2024/02/07 11:14:38;;;;;;;;;;;;;;;17.61;43.19;99142.75;4984061;28;19992;-84
2024/02/07 11:17:04;;;;;;;;;;;;;;;17.66;43.77;99134.84;4972028;28;19968;-85
2024/02/07 11:19:29;;;;;;;;;;;;;;;17.71;43.09;99134.97;4993601;28;20001;-85
2024/02/07 11:21:55;;;;;;;;;;;;;;;17.74;43.66;99139.84;4993922;28;19914;-84
2024/02/07 11:24:22;;;;;;;;;;;;;;;17.79;43.00;99139.97;4993101;28;19917;-85
2024/02/07 11:26:49;;;;;;;;;;;;;;;17.79;43.26;99129.28;4993288;28;19914;-84
2024/02/07 11:29:14;;;;;;;;;;;;;;;17.78;42.90;99125.78;4983247;28;19929;-84
2024/02/07 11:31:40;;;;;;;;;;;;;;;17.79;42.63;99127.41;4975542;28;19914;-84
2024/02/07 11:34:06;;;;;;;;;;;;;;;17.77;42.84;99126.03;4975656;28;19924;-84
2024/02/07 11:36:33;;;;;;;;;;;;;;;17.76;43.45;99127.09;4976564;28;19913;-85
2024/02/07 11:38:58;;;;;;;;;;;;;;;17.76;43.36;99119.88;4993469;28;19914;-84
2024/02/07 11:41:24;;;;;;;;;;;;;;;17.79;43.90;99114.06;4974876;28;19918;-84
2024/02/07 11:43:50;;;;;;;;;;;;;;;17.86;43.29;99108.63;4993658;28;20375;-85
2024/02/07 11:46:19;;;;;;;;;;;;;;;17.92;42.58;99096.19;4976084;28;19961;-84
2024/02/07 11:48:48;;;;;;;;;;;;;;;17.94;42.53;99097.56;4993242;28;19968;-85
2024/02/07 11:51:15;;;;;;;;;;;;;;;17.98;42.58;99097.91;4975918;28;19996;-84
2024/02/07 11:53:41;;;;;;;;;;;;;;;18.02;42.56;99097.19;4993233;28;19914;-84
2024/02/07 11:56:10;;;;;;;;;;;;;;;18.07;42.26;99091.16;4975833;28;20308;-84
2024/02/07 11:58:36;;;;;;;;;;;;;;;18.11;42.12;99092.28;4974820;28;20391;-84
2024/02/07 12:01:01;;;;;;;;;;;;;;;18.10;42.03;99088.81;4993335;28;19918;-84
2024/02/07 12:03:27;;;;;;;;;;;;;;;18.09;42.18;99081.03;4975825;28;19956;-84
2024/02/07 12:05:52;;;;;;;;;;;;;;;18.12;42.57;99082.41;4974509;28;19917;-84
2024/02/07 12:08:18;;;;;;;;;;;;;;;18.11;42.63;99065.56;4974582;28;19920;-84
2024/02/07 12:10:44;;;;;;;;;;;;;;;18.14;42.95;99056.28;4993020;28;19968;-85
2024/02/07 12:13:10;;;;;;;;;;;;;;;18.16;42.70;99055.00;4993049;28;19961;-84
2024/02/07 12:15:36;;;;;;;;;;;;;;;18.19;42.04;99054.50;4986435;28;19918;-84
2024/02/07 12:18:02;;;;;;;;;;;;;;;18.20;42.44;99053.47;4969151;28;20461;-84
2024/02/07 12:20:29;;;;;;;;;;;;;;;18.24;42.09;99048.44;4974099;28;20008;-84
2024/02/07 12:23:01;;;;;;;;;;;;;;;18.25;41.87;99047.41;4992164;28;19917;-84
2024/02/07 12:25:26;;;;;;;;;;;;;;;18.26;41.93;99044.47;4974490;28;19925;-84
2024/02/07 12:27:52;;;;;;;;;;;;;;;18.28;42.35;99039.72;4975406;28;19913;-84
2024/02/07 12:30:17;;;;;;;;;;;;;;;18.29;41.72;99041.31;4974949;28;19976;-84
2024/02/07 12:32:44;;;;;;;;;;;;;;;18.27;41.04;99034.59;4975183;28;20346;-85
2024/02/07 12:35:09;;;;;;;;;;;;;;;18.28;41.26;99036.22;4992607;28;19922;-84
2024/02/07 12:37:35;;;;;;;;;;;;;;;18.32;42.03;99040.03;4992419;28;19918;-84
2024/02/07 12:40:01;;;;;;;;;;;;;;;18.30;42.05;99029.59;4992516;28;19917;-84
2024/02/07 12:42:26;;;;;;;;;;;;;;;18.34;42.22;99022.72;4991793;28;19918;-84
2024/02/07 12:44:53;;;;;;;;;;;;;;;18.36;42.36;99017.94;4992044;28;19913;-84
2024/02/07 12:47:22;;;;;;;;;;;;;;;18.38;42.27;99013.16;4974886;28;19918;-84
2024/02/07 12:49:48;;;;;;;;;;;;;;;18.36;42.47;99017.94;4962231;28;19922;-84
2024/02/07 12:52:14;;;;;;;;;;;;;;;18.35;42.29;99005.63;4991815;28;19922;-84
2024/02/07 12:54:40;;;;;;;;;;;;;;;18.30;42.24;99007.41;4992383;28;19940;-84
2024/02/07 12:57:05;;;;;;;;;;;;;;;18.26;42.45;99007.06;4992668;28;20338;-84
2024/02/07 12:59:32;;;;;;;;;;;;;;;18.25;42.49;98999.28;4992302;28;19917;-83
2024/02/07 13:01:58;;;;;;;;;;;;;;;18.24;42.71;99006.50;4974979;28;20455;-83
2024/02/07 13:04:23;;;;;;;;;;;;;;;18.21;42.23;99006.97;4974597;28;20001;-83
2024/02/07 13:06:49;;;;;;;;;;;;;;;18.21;42.38;98998.97;4974947;28;19941;-84
2024/02/07 13:09:15;;;;;;;;;;;;;;;18.19;42.36;99000.25;4992121;28;19922;-83
2024/02/07 13:11:40;;;;;;;;;;;;;;;18.17;42.02;99000.50;4974424;28;19924;-83
2024/02/07 13:14:05;;;;;;;;;;;;;;;18.15;42.36;98993.78;4974664;28;19918;-83
2024/02/07 13:16:32;;;;;;;;;;;;;;;18.12;42.03;98994.25;4992200;28;19918;-83
2024/02/07 13:18:58;;;;;;;;;;;;;;;18.09;42.46;98995.53;4992043;28;19960;-83
2024/02/07 13:21:26;;;;;;;;;;;;;;;18.07;42.25;98992.31;4991925;28;20015;-84
2024/02/07 13:23:51;;;;;;;;;;;;;;;18.05;42.34;99000.56;4991176;28;20008;-83
2024/02/07 13:26:21;;;;;;;;;;;;;;;18.04;42.51;98995.44;4974742;28;19921;-83
2024/02/07 13:28:50;;;;;;;;;;;;;;;18.04;42.54;98992.78;4974860;28;19926;-84
2024/02/07 13:31:16;;;;;;;;;;;;;;;18.07;42.25;99000.31;4990143;28;19948;-84
2024/02/07 13:33:42;;;;;;;;;;;;;;;18.08;41.92;99002.75;4975024;28;19957;-83
2024/02/07 13:36:07;;;;;;;;;;;;;;;18.11;42.10;98993.44;4992539;28;20470;-84
2024/02/07 13:38:32;;;;;;;;;;;;;;;18.12;41.57;98992.41;4992591;28;19910;-83
2024/02/07 13:40:58;;;;;;;;;;;;;;;18.12;41.80;98997.72;4992759;28;19917;-84
2024/02/07 13:43:23;;;;;;;;;;;;;;;18.13;41.54;98987.84;4992425;28;19968;-83
2024/02/07 13:45:48;;;;;;;;;;;;;;;18.10;41.57;98991.81;4974866;28;19984;-83
2024/02/07 13:48:14;;;;;;;;;;;;;;;18.08;41.43;98997.41;4992041;28;19918;-83